Terminal Aerodrome Forecast
Issued by NWS Boston, MA

Home | Current Version | Previous Version | Text Only | Print | Product List | Glossary On
Versions: 1 2 3 4 5 6 7 8 9 10 11 12 13 14 15 16 17 18 19 20 21 22 23 24
000
FTUS41 KBOX 251429 AAA
TAFBDL
TAF AMD
KBDL 251429Z 2514/2618 03009KT 6SM -RA BR OVC015
     FM251700 04010G19KT 3SM -RA BR OVC008
     FM252000 03009KT 3SM -DZ BR OVC008
     FM260200 02007KT 3SM -RA BR OVC008
     FM260600 02005KT 5SM -RA BR OVC004
     FM261200 35005KT 6SM BR VCSH OVC008
     FM261600 33005KT 6SM BR VCSH OVC015=

USA.gov is the U.S. government's official web portal to all federal, state and local government web resources and services.